New Century 1 — H9LA — position and weather

sailwx.info

Track history (hours):
 
Tides and Currents Weather Stations Pressure Air Temp Water Temp Dewpoint Dewpoint Depression Visibility Wind Speed Wind Dir Waves Ship Positions

New Century 1

Last reported at 2016-Dec-10 00:00 UTC. Time now 2016-Dec-10 12:41 UTC.
Position N 36°12' W 153°54'.

Length 200 m; beam 32.3 m.

Type: Cargo ship. MMSI: 355234000.

Wind from 060 at 29 knots

Barometer 1016.0 mb
Air temperature 12.7 ° C
Visibility: greater than 10.8 NM
Dewpoint 12.2 ° C

Date/timePositionNaut miles runAvg speedWind from/ knotsBaromVisibWave heightAir tempDewpointWater temp
2016-Dec-10 00:00N 36°12' W 153°54'   060 / 291016.010.8 12.712.2
2016-Dec-07 12:00N 36°48' W 133°24'9616.0 220 / 321009.6 2.2 16.014.4
2016-Dec-07 06:00N 36°54' W 131°24'36216.1 180 / 291014.210.8 15.013.3
2016-Dec-06 07:29N 37°21' W 123°51'3216.1
2016-Dec-06 05:28N 37°32' W 123°13'1415.7
2016-Dec-06 04:33N 37°39' W 122°56'1414.3
2016-Dec-06 03:34N 37°45' W 122°40'1414.0
2016-Dec-06 02:34N 37°52' W 122°25'1313.1
2016-Dec-06 01:33N 38°04' W 122°17'7 0.6
2016-Dec-05 14:29N 38°02' W 122°08'6 6.9
2016-Dec-05 13:33N 38°04' W 122°16'1313.1
2016-Dec-05 12:33N 37°53' W 122°26'7 7.1
2016-Dec-05 11:33N 37°48' W 122°32'9 9.1
2016-Dec-05 10:34N 37°42' W 122°41'5 4.6
2016-Dec-05 09:33N 37°38' W 122°40'6 6.1
2016-Dec-05 08:34N 37°32' W 122°39'7 6.8
2016-Dec-05 07:33N 37°25' W 122°40'8 8.4
2016-Dec-05 06:34N 37°16' W 122°40'8 8.2
2016-Dec-05 05:33N 37°08' W 122°40'8 8.0
2016-Dec-05 04:33N 37°00' W 122°40'8 8.0
2016-Dec-05 03:33N 36°52' W 122°40'10 8.9
2016-Dec-05 02:25N 36°42' W 122°38'8 8.4
2016-Dec-05 01:29N 36°35' W 122°35'9 8.7
2016-Dec-05 00:29N 36°26' W 122°32'8 8.5
2016-Dec-04 23:33N 36°19' W 122°30'9 8.9
2016-Dec-04 22:33N 36°10' W 122°27'8 8.3
2016-Dec-04 21:34N 36°02' W 122°24'10 9.6
2016-Dec-04 20:34N 35°53' W 122°21'1413.9
2016-Dec-04 19:33N 35°40' W 122°15'1413.9
2016-Dec-04 18:33N 35°29' W 122°04'1414.2
2016-Dec-04 17:33N 35°18' W 121°54'1514.5
2016-Dec-04 16:33N 35°06' W 121°43'9314.8
2016-Dec-04 10:15N 34°16' W 120°07'1216.8
2016-Dec-04 09:33N 34°13' W 119°54'1716.7
2016-Dec-04 08:33N 34°09' W 119°34'1717.1
2016-Dec-04 07:33N 34°04' W 119°14'1414.0
2016-Dec-04 06:33N 33°57' W 118°60'1010.5
2016-Dec-04 05:33N 33°52' W 118°49'1110.5
2016-Dec-04 04:33N 33°47' W 118°38'1010.4
2016-Dec-04 03:33N 33°41' W 118°27'10 9.9
2016-Dec-04 02:33N 33°38' W 118°15'7 6.7
2016-Dec-04 01:33N 33°45' W 118°13'2 1.5
2016-Dec-04 00:32N 33°46' W 118°13'0 0.0
2016-Dec-03 23:29N 33°46' W 118°13'0 0.0
2016-Dec-03 22:29N 33°46' W 118°13'0 0.0
2016-Dec-03 21:32N 33°46' W 118°13'24 1.2
2016-Dec-03 00:31N 33°23' W 118°04'9 9.2
2016-Dec-02 23:33N 33°15' W 118°01'9 9.2
2016-Dec-02 22:33N 33°06' W 117°57'9 8.9
2016-Dec-02 21:33N 32°58' W 117°54'8 7.6
2016-Dec-02 20:33N 32°50' W 117°55'9 9.2
2016-Dec-02 19:33N 32°43' W 118°02'9 8.9
2016-Dec-02 18:34N 32°37' W 118°09'72 5.7
2016-Dec-02 06:00N 31°48' W 119°12'51 8.6 330 / 291014.510.8 14.012.3
2016-Dec-02 00:00N 31°54' W 120°12'9215.3 330 / 351015.110.8 13.913.1
2016-Dec-01 18:00N 32°00' W 122°00'5257146.0 350 / 251019.510.8 13.011.316.0
2016-Nov-30 06:00N 36°24' E 132°12'   340 / 251025.210.8 14.012.316.0
Track history (hours):
 
Tides and Currents Weather Stations Pressure Air Temp Water Temp Dewpoint Dewpoint Depression Visibility Wind Speed Wind Dir Waves Ship Positions

New Century 1

Last reported at 2016-Dec-10 00:00 UTC. Time now 2016-Dec-10 12:41 UTC.
Position N 36°12' W 153°54'.

Length 200 m; beam 32.3 m.

Type: Cargo ship. MMSI: 355234000.

Wind from 060 at 29 knots

Barometer 1016.0 mb
Air temperature 12.7 ° C
Visibility: greater than 10.8 NM
Dewpoint 12.2 ° C

Date/timePositionNaut miles runAvg speedWind from/ knotsBaromVisibWave heightAir tempDewpointWater temp
2016-Dec-10 00:00N 36°12' W 153°54'   060 / 291016.010.8 12.712.2
2016-Dec-07 12:00N 36°48' W 133°24'9616.0 220 / 321009.6 2.2 16.014.4
2016-Dec-07 06:00N 36°54' W 131°24'36216.1 180 / 291014.210.8 15.013.3
2016-Dec-06 07:29N 37°21' W 123°51'3216.1
2016-Dec-06 05:28N 37°32' W 123°13'1415.7
2016-Dec-06 04:33N 37°39' W 122°56'1414.3
2016-Dec-06 03:34N 37°45' W 122°40'1414.0
2016-Dec-06 02:34N 37°52' W 122°25'1313.1
2016-Dec-06 01:33N 38°04' W 122°17'7 0.6
2016-Dec-05 14:29N 38°02' W 122°08'6 6.9
2016-Dec-05 13:33N 38°04' W 122°16'1313.1
2016-Dec-05 12:33N 37°53' W 122°26'7 7.1
2016-Dec-05 11:33N 37°48' W 122°32'9 9.1
2016-Dec-05 10:34N 37°42' W 122°41'5 4.6
2016-Dec-05 09:33N 37°38' W 122°40'6 6.1
2016-Dec-05 08:34N 37°32' W 122°39'7 6.8
2016-Dec-05 07:33N 37°25' W 122°40'8 8.4
2016-Dec-05 06:34N 37°16' W 122°40'8 8.2
2016-Dec-05 05:33N 37°08' W 122°40'8 8.0
2016-Dec-05 04:33N 37°00' W 122°40'8 8.0
2016-Dec-05 03:33N 36°52' W 122°40'10 8.9
2016-Dec-05 02:25N 36°42' W 122°38'8 8.4
2016-Dec-05 01:29N 36°35' W 122°35'9 8.7
2016-Dec-05 00:29N 36°26' W 122°32'8 8.5
2016-Dec-04 23:33N 36°19' W 122°30'9 8.9
2016-Dec-04 22:33N 36°10' W 122°27'8 8.3
2016-Dec-04 21:34N 36°02' W 122°24'10 9.6
2016-Dec-04 20:34N 35°53' W 122°21'1413.9
2016-Dec-04 19:33N 35°40' W 122°15'1413.9
2016-Dec-04 18:33N 35°29' W 122°04'1414.2
2016-Dec-04 17:33N 35°18' W 121°54'1514.5
2016-Dec-04 16:33N 35°06' W 121°43'9314.8
2016-Dec-04 10:15N 34°16' W 120°07'1216.8
2016-Dec-04 09:33N 34°13' W 119°54'1716.7
2016-Dec-04 08:33N 34°09' W 119°34'1717.1
2016-Dec-04 07:33N 34°04' W 119°14'1414.0
2016-Dec-04 06:33N 33°57' W 118°60'1010.5
2016-Dec-04 05:33N 33°52' W 118°49'1110.5
2016-Dec-04 04:33N 33°47' W 118°38'1010.4
2016-Dec-04 03:33N 33°41' W 118°27'10 9.9
2016-Dec-04 02:33N 33°38' W 118°15'7 6.7
2016-Dec-04 01:33N 33°45' W 118°13'2 1.5
2016-Dec-04 00:32N 33°46' W 118°13'0 0.0
2016-Dec-03 23:29N 33°46' W 118°13'0 0.0
2016-Dec-03 22:29N 33°46' W 118°13'0 0.0
2016-Dec-03 21:32N 33°46' W 118°13'24 1.2
2016-Dec-03 00:31N 33°23' W 118°04'9 9.2
2016-Dec-02 23:33N 33°15' W 118°01'9 9.2
2016-Dec-02 22:33N 33°06' W 117°57'9 8.9
2016-Dec-02 21:33N 32°58' W 117°54'8 7.6
2016-Dec-02 20:33N 32°50' W 117°55'9 9.2
2016-Dec-02 19:33N 32°43' W 118°02'9 8.9
2016-Dec-02 18:34N 32°37' W 118°09'72 5.7
2016-Dec-02 06:00N 31°48' W 119°12'51 8.6 330 / 291014.510.8 14.012.3
2016-Dec-02 00:00N 31°54' W 120°12'9215.3 330 / 351015.110.8 13.913.1
2016-Dec-01 18:00N 32°00' W 122°00'5257146.0 350 / 251019.510.8 13.011.316.0
2016-Nov-30 06:00N 36°24' E 132°12'   340 / 251025.210.8 14.012.316.0

Dump ship's entire track history